createdAt,value
2022-09-26T00:01:38.843Z,7.23
2022-09-26T00:04:10.020Z,7.23
2022-09-26T00:06:39.867Z,9.30
2022-09-26T00:09:08.360Z,10.00
2022-09-26T00:11:36.856Z,9.27
2022-09-26T00:14:08.079Z,10.63
2022-09-26T00:16:36.818Z,11.50
2022-09-26T00:19:05.732Z,10.33
2022-09-26T00:21:34.663Z,9.07
2022-09-26T00:24:05.538Z,10.67
2022-09-26T00:26:35.501Z,10.33
2022-09-26T00:29:07.329Z,8.60
2022-09-26T00:31:38.004Z,11.27
2022-09-26T00:34:06.552Z,12.60
2022-09-26T00:36:38.335Z,11.60
2022-09-26T00:39:10.516Z,13.43
2022-09-26T00:41:39.482Z,12.57
2022-09-26T00:44:49.704Z,10.30
2022-09-26T00:47:42.944Z,16.07
2022-09-26T00:50:17.022Z,15.17
2022-09-26T00:52:50.083Z,15.93
2022-09-26T00:55:22.910Z,14.87
2022-09-26T00:57:54.915Z,14.10
2022-09-26T01:00:23.833Z,13.67
2022-09-26T01:02:53.194Z,10.30
2022-09-26T01:05:23.246Z,9.83
2022-09-26T01:07:52.423Z,9.63
2022-09-26T01:10:24.583Z,9.03
2022-09-26T01:12:53.394Z,7.87
2022-09-26T01:15:21.785Z,11.50
2022-09-26T01:17:50.809Z,12.77
2022-09-26T01:20:26.842Z,9.67
2022-09-26T01:23:34.723Z,10.07
2022-09-26T01:26:42.934Z,9.00
2022-09-26T01:29:41.886Z,8.47
2022-09-26T01:32:39.215Z,7.40
2022-09-26T01:35:12.574Z,7.50
2022-09-26T01:37:47.689Z,8.80
2022-09-26T01:40:22.152Z,7.70
2022-09-26T01:43:00.044Z,6.60
2022-09-26T01:45:29.917Z,6.00
2022-09-26T01:48:05.180Z,6.80
2022-09-26T01:50:39.159Z,5.37
2022-09-26T01:53:10.866Z,6.00
2022-09-26T01:55:41.721Z,6.30
2022-09-26T01:58:14.392Z,5.63
2022-09-26T02:00:44.607Z,5.37
2022-09-26T02:03:16.988Z,5.17
2022-09-26T02:05:47.693Z,4.57
2022-09-26T02:08:18.674Z,5.23
2022-09-26T02:10:49.200Z,5.87
2022-09-26T02:13:21.412Z,7.70
2022-09-26T02:15:53.543Z,7.40
2022-09-26T02:18:27.291Z,7.73
2022-09-26T02:20:59.151Z,7.93
2022-09-26T02:23:27.557Z,7.87
2022-09-26T02:25:56.648Z,7.43
2022-09-26T02:28:25.103Z,9.17
2022-09-26T02:30:54.224Z,10.40
2022-09-26T02:33:24.302Z,11.63
2022-09-26T02:35:55.360Z,10.17
2022-09-26T02:38:24.835Z,10.40
2022-09-26T02:40:59.039Z,14.00
2022-09-26T02:43:55.823Z,12.40
2022-09-26T02:46:43.694Z,12.07
2022-09-26T02:49:32.395Z,11.27
2022-09-26T02:52:18.476Z,12.50
2022-09-26T02:54:54.288Z,11.77
2022-09-26T02:57:32.351Z,9.87
2022-09-26T03:00:05.365Z,12.27
2022-09-26T03:02:39.074Z,11.13
2022-09-26T03:05:12.346Z,10.13
2022-09-26T03:07:45.935Z,9.50
2022-09-26T03:10:15.467Z,10.87
2022-09-26T03:12:45.569Z,10.10
2022-09-26T03:15:15.080Z,11.40
2022-09-26T03:17:46.866Z,15.67
2022-09-26T03:20:18.296Z,26.27
2022-09-26T03:22:47.073Z,19.67
2022-09-26T03:25:18.507Z,11.97
2022-09-26T03:27:47.916Z,13.47
2022-09-26T03:30:18.304Z,10.40
2022-09-26T03:32:46.716Z,10.50
2022-09-26T03:35:16.810Z,12.80
2022-09-26T03:37:45.214Z,9.40
2022-09-26T03:40:15.198Z,8.37
2022-09-26T03:42:43.665Z,8.50
2022-09-26T03:45:12.456Z,7.73
2022-09-26T03:47:42.040Z,6.67
2022-09-26T03:50:11.200Z,6.43
2022-09-26T03:52:41.010Z,15.73
2022-09-26T03:55:09.491Z,13.63
2022-09-26T03:57:38.007Z,9.40
2022-09-26T04:00:08.017Z,7.67
2022-09-26T04:02:36.528Z,7.20
2022-09-26T04:05:06.028Z,6.93
2022-09-26T04:07:34.443Z,7.83
2022-09-26T04:10:04.334Z,8.23
2022-09-26T04:12:32.931Z,17.53
2022-09-26T04:15:02.423Z,6.80
2022-09-26T04:17:31.140Z,5.90
2022-09-26T04:19:59.596Z,6.00
2022-09-26T04:22:28.120Z,6.20
2022-09-26T04:24:57.171Z,5.73
2022-09-26T04:27:29.967Z,5.33
2022-09-26T04:29:58.510Z,4.20
2022-09-26T04:32:26.990Z,4.20
2022-09-26T04:34:55.385Z,4.67
2022-09-26T04:37:24.109Z,4.20
2022-09-26T04:39:52.545Z,4.17
2022-09-26T04:42:21.429Z,4.27
2022-09-26T04:44:51.313Z,4.80
2022-09-26T04:47:19.774Z,4.23
2022-09-26T04:49:48.439Z,4.53
2022-09-26T04:52:16.847Z,4.33
2022-09-26T04:54:45.267Z,5.43
2022-09-26T04:57:19.384Z,5.57
2022-09-26T04:59:48.251Z,5.73
2022-09-26T05:02:18.949Z,5.97
2022-09-26T05:04:48.176Z,5.67
2022-09-26T05:07:18.339Z,5.50
2022-09-26T05:09:47.912Z,4.80
2022-09-26T05:12:17.288Z,4.27
2022-09-26T05:14:45.934Z,4.23
2022-09-26T05:17:15.088Z,4.10
2022-09-26T05:19:45.463Z,3.60
2022-09-26T05:22:13.862Z,3.40
2022-09-26T05:24:59.747Z,3.00
2022-09-26T05:27:28.165Z,3.47
2022-09-26T05:29:56.943Z,4.13
2022-09-26T05:32:25.640Z,4.27
2022-09-26T05:34:56.150Z,3.50
2022-09-26T05:37:24.655Z,3.70
2022-09-26T05:40:10.811Z,5.53
2022-09-26T05:42:39.260Z,12.33
2022-09-26T05:45:09.361Z,13.10
2022-09-26T05:47:38.099Z,8.90
2022-09-26T05:50:10.955Z,24.93
2022-09-26T05:52:39.773Z,16.83
2022-09-26T05:55:08.811Z,49.23
2022-09-26T05:57:37.325Z,34.47
2022-09-26T06:00:07.525Z,21.97
2022-09-26T06:02:36.039Z,38.17
2022-09-26T06:05:04.898Z,16.23
2022-09-26T06:07:35.313Z,28.57
2022-09-26T06:10:05.459Z,11.10
2022-09-26T06:12:35.142Z,3.20
2022-09-26T06:15:03.689Z,5.77
2022-09-26T06:17:32.338Z,6.00
2022-09-26T06:20:00.827Z,3.40
2022-09-26T06:22:29.339Z,3.53
2022-09-26T06:24:59.138Z,4.63
2022-09-26T06:27:27.724Z,3.47
2022-09-26T06:29:56.296Z,3.33
2022-09-26T06:32:24.956Z,3.90
2022-09-26T06:34:53.442Z,4.93
2022-09-26T06:37:21.934Z,6.23
2022-09-26T06:39:50.640Z,6.27
2022-09-26T06:42:20.412Z,5.57
2022-09-26T06:44:48.823Z,7.70
2022-09-26T06:47:17.949Z,6.00
2022-09-26T06:49:48.524Z,6.17
2022-09-26T06:52:17.003Z,7.03
2022-09-26T06:54:45.811Z,6.10
2022-09-26T06:57:15.334Z,4.93
2022-09-26T06:59:45.272Z,5.17
2022-09-26T07:02:17.014Z,6.50
2022-09-26T07:04:46.221Z,5.90
2022-09-26T07:07:14.629Z,5.33
2022-09-26T07:09:43.161Z,5.97
2022-09-26T07:12:15.002Z,5.37
2022-09-26T07:14:48.864Z,6.60
2022-09-26T07:17:19.051Z,5.80
2022-09-26T07:19:52.893Z,5.33
2022-09-26T07:22:21.455Z,4.73
2022-09-26T07:24:50.687Z,3.53
2022-09-26T07:27:19.222Z,3.33
2022-09-26T07:29:49.551Z,4.50
2022-09-26T07:32:17.993Z,4.63
2022-09-26T07:34:46.392Z,6.07
2022-09-26T07:37:14.827Z,4.90
2022-09-26T07:39:43.250Z,4.80
2022-09-26T07:42:11.890Z,5.43
2022-09-26T07:45:20.490Z,5.37
2022-09-26T07:47:51.332Z,3.90
2022-09-26T07:50:20.043Z,7.80
2022-09-26T07:52:50.483Z,5.73
2022-09-26T07:55:21.078Z,4.67
2022-09-26T07:57:50.091Z,4.60
2022-09-26T08:00:21.476Z,5.27
2022-09-26T08:02:52.777Z,5.63
2022-09-26T08:05:21.331Z,9.13
2022-09-26T08:07:50.255Z,5.63
2022-09-26T08:10:22.106Z,7.37
2022-09-26T08:12:51.001Z,8.17
2022-09-26T08:15:19.603Z,10.00
2022-09-26T08:17:48.017Z,6.57
2022-09-26T08:20:17.857Z,6.73
2022-09-26T08:22:46.291Z,6.20
2022-09-26T08:25:14.756Z,5.00
2022-09-26T08:27:45.016Z,3.50
2022-09-26T08:30:13.688Z,4.17
2022-09-26T08:32:42.451Z,4.50
2022-09-26T08:35:12.127Z,3.43
2022-09-26T08:37:41.974Z,2.80
2022-09-26T08:40:11.586Z,3.47
2022-09-26T08:42:57.503Z,2.50
2022-09-26T08:45:53.307Z,3.17
2022-09-26T08:48:33.086Z,3.40
2022-09-26T08:51:09.253Z,3.70
2022-09-26T08:53:43.050Z,5.60
2022-09-26T08:56:18.963Z,2.57
2022-09-26T08:58:52.258Z,3.87
2022-09-26T09:01:29.407Z,3.40
2022-09-26T09:04:03.353Z,2.83
2022-09-26T09:06:31.919Z,3.00
2022-09-26T09:09:02.154Z,2.83
2022-09-26T09:11:53.651Z,4.03
2022-09-26T09:14:40.354Z,3.80
2022-09-26T09:17:16.146Z,3.37
2022-09-26T09:19:51.218Z,2.67
2022-09-26T09:22:44.687Z,2.67
2022-09-26T09:25:17.996Z,4.00
2022-09-26T09:28:02.590Z,3.77
2022-09-26T09:30:41.448Z,3.50
2022-09-26T09:33:14.929Z,2.87
2022-09-26T09:35:46.262Z,2.30
2022-09-26T09:38:18.159Z,2.70
2022-09-26T09:40:53.690Z,2.10
2022-09-26T09:43:27.762Z,3.33
2022-09-26T09:46:00.336Z,3.03
2022-09-26T09:48:29.173Z,2.10
2022-09-26T09:51:15.032Z,3.70
2022-09-26T09:54:04.426Z,3.07
2022-09-26T09:56:45.413Z,3.13
2022-09-26T09:59:45.006Z,3.43
2022-09-26T10:02:20.105Z,3.83
2022-09-26T10:04:52.844Z,3.43
2022-09-26T10:07:21.295Z,3.63
2022-09-26T10:09:52.002Z,3.03
2022-09-26T10:12:29.544Z,4.60
2022-09-26T10:15:02.158Z,4.27
2022-09-26T10:17:31.195Z,2.83
2022-09-26T10:19:59.939Z,3.37
2022-09-26T10:22:33.154Z,2.27
2022-09-26T10:25:04.065Z,3.87
2022-09-26T10:27:37.028Z,2.63
2022-09-26T10:30:21.706Z,3.67
2022-09-26T10:32:56.496Z,2.40
2022-09-26T10:35:26.686Z,2.53
2022-09-26T10:38:02.924Z,2.93
2022-09-26T10:40:47.912Z,4.23
2022-09-26T10:43:28.623Z,2.57
2022-09-26T10:46:03.132Z,2.93
2022-09-26T10:48:43.326Z,3.43
2022-09-26T10:51:12.010Z,2.73
2022-09-26T10:53:41.896Z,4.23
2022-09-26T10:56:13.032Z,1.87
2022-09-26T10:58:46.541Z,2.17
2022-09-26T11:01:21.246Z,1.83
2022-09-26T11:03:51.395Z,3.13
2022-09-26T11:06:24.759Z,3.43
2022-09-26T11:08:56.249Z,3.53
2022-09-26T11:11:25.009Z,3.33
2022-09-26T11:14:07.554Z,2.73
2022-09-26T11:16:41.780Z,3.07
2022-09-26T11:19:15.651Z,2.07
2022-09-26T11:21:47.717Z,2.40
2022-09-26T11:24:19.945Z,3.60
2022-09-26T11:26:57.183Z,3.97
2022-09-26T11:29:34.947Z,3.17
2022-09-26T11:32:05.126Z,2.40
2022-09-26T11:34:35.249Z,2.40
2022-09-26T11:37:22.178Z,3.17
2022-09-26T11:40:09.428Z,2.47
2022-09-26T11:42:46.223Z,2.70
2022-09-26T11:45:21.647Z,2.40
2022-09-26T11:48:26.755Z,2.30
2022-09-26T11:51:01.985Z,1.93
2022-09-26T11:53:52.747Z,2.20
2022-09-26T11:56:34.055Z,2.20
2022-09-26T11:59:17.754Z,2.30
2022-09-26T12:01:54.898Z,2.10
2022-09-26T12:04:46.979Z,1.80
2022-09-26T12:07:19.744Z,2.37
2022-09-26T12:10:02.316Z,5.03
2022-09-26T12:12:40.408Z,13.30
2022-09-26T12:15:15.615Z,3.77
2022-09-26T12:17:56.983Z,2.90
2022-09-26T12:20:31.998Z,1.73
2022-09-26T12:23:07.249Z,1.60
2022-09-26T12:25:41.283Z,1.77
2022-09-26T12:28:20.826Z,1.93
2022-09-26T12:30:57.858Z,1.60
2022-09-26T12:34:02.143Z,2.37
2022-09-26T12:36:47.489Z,1.83
2022-09-26T12:39:49.003Z,2.03
2022-09-26T12:42:31.217Z,1.87
2022-09-26T12:45:12.042Z,1.90
2022-09-26T12:47:55.241Z,2.03
2022-09-26T12:50:31.170Z,1.90
2022-09-26T12:53:21.414Z,2.10
2022-09-26T12:55:57.617Z,2.20
2022-09-26T12:58:35.051Z,2.20
2022-09-26T13:01:12.206Z,2.00
2022-09-26T13:04:12.602Z,1.70
2022-09-26T13:07:18.446Z,2.77
2022-09-26T13:10:23.614Z,1.80
2022-09-26T13:13:30.613Z,5.17
2022-09-26T13:16:13.249Z,2.27
2022-09-26T13:18:45.536Z,1.97
2022-09-26T13:21:17.214Z,1.83
2022-09-26T13:23:52.577Z,1.70
2022-09-26T13:26:26.594Z,1.80
2022-09-26T13:29:16.253Z,1.40
2022-09-26T13:31:47.950Z,1.60
2022-09-26T13:34:21.199Z,1.70
2022-09-26T13:36:50.881Z,1.90
2022-09-26T13:39:26.927Z,1.60
2022-09-26T13:42:01.937Z,1.60
2022-09-26T13:44:39.197Z,1.93
2022-09-26T13:47:15.103Z,1.80
2022-09-26T13:49:53.266Z,1.93
2022-09-26T13:52:35.299Z,1.93
2022-09-26T13:55:14.343Z,1.93
2022-09-26T13:57:49.883Z,2.20
2022-09-26T14:00:41.609Z,3.43
2022-09-26T14:03:35.541Z,2.17
2022-09-26T14:06:10.464Z,2.43
2022-09-26T14:09:25.825Z,2.43
2022-09-26T14:12:33.184Z,2.37
2022-09-26T14:15:17.276Z,2.50
2022-09-26T14:18:07.178Z,3.90
2022-09-26T14:20:40.564Z,4.20
2022-09-26T14:23:40.072Z,4.40
2022-09-26T14:26:13.575Z,3.87
2022-09-26T14:28:51.519Z,2.93
2022-09-26T14:31:44.083Z,2.60
2022-09-26T14:34:23.627Z,2.70
2022-09-26T14:36:53.751Z,2.57
2022-09-26T14:39:33.617Z,2.37
2022-09-26T14:42:16.875Z,3.00
2022-09-26T14:45:05.337Z,2.47
2022-09-26T14:47:41.254Z,2.57
2022-09-26T14:50:17.199Z,2.70
2022-09-26T14:52:52.265Z,2.57
2022-09-26T14:55:20.911Z,3.13
2022-09-26T14:57:49.610Z,7.60
2022-09-26T15:00:35.973Z,12.13
2022-09-26T15:03:06.677Z,8.13
2022-09-26T15:05:35.452Z,5.27
2022-09-26T15:08:04.602Z,3.50
2022-09-26T15:10:41.598Z,3.90
2022-09-26T15:13:24.863Z,4.03
2022-09-26T15:16:03.451Z,4.00
2022-09-26T15:18:36.204Z,2.97
2022-09-26T15:21:12.233Z,2.70
2022-09-26T15:23:50.458Z,2.70
2022-09-26T15:26:21.464Z,2.50
2022-09-26T15:28:51.635Z,2.37
2022-09-26T15:31:24.165Z,3.27
2022-09-26T15:33:55.643Z,2.43
2022-09-26T15:36:24.281Z,2.50
2022-09-26T15:38:53.123Z,2.57
2022-09-26T15:41:35.572Z,5.13
2022-09-26T15:44:05.843Z,30.40
2022-09-26T15:46:35.857Z,13.70
2022-09-26T15:49:14.038Z,11.70
2022-09-26T15:51:44.268Z,9.63
2022-09-26T15:54:20.269Z,8.90
2022-09-26T15:56:51.547Z,5.67
2022-09-26T15:59:23.228Z,7.80
2022-09-26T16:01:53.492Z,5.33
2022-09-26T16:04:23.511Z,5.50
2022-09-26T16:06:57.514Z,10.37
2022-09-26T16:09:32.009Z,7.93
2022-09-26T16:12:02.279Z,7.57
2022-09-26T16:14:34.671Z,11.40
2022-09-26T16:17:13.738Z,11.57
2022-09-26T16:19:47.125Z,12.10
2022-09-26T16:22:44.960Z,9.13
2022-09-26T16:25:29.636Z,7.13
2022-09-26T16:28:32.147Z,7.93
2022-09-26T16:31:11.211Z,14.07
2022-09-26T16:33:41.356Z,11.30
2022-09-26T16:36:18.415Z,10.27
2022-09-26T16:38:55.643Z,7.70
2022-09-26T16:41:56.140Z,8.57
2022-09-26T16:44:27.564Z,7.33
2022-09-26T16:47:02.591Z,5.57
2022-09-26T16:49:43.025Z,5.37
2022-09-26T16:52:28.146Z,5.57
2022-09-26T16:54:57.420Z,6.37
2022-09-26T16:57:28.171Z,8.93
2022-09-26T17:00:21.808Z,9.13
2022-09-26T17:02:49.412Z,12.93
2022-09-26T17:05:21.783Z,14.53
2022-09-26T17:07:51.054Z,16.23
2022-09-26T17:10:20.968Z,15.17
2022-09-26T17:12:51.587Z,7.53
2022-09-26T17:15:28.265Z,5.63
2022-09-26T17:17:57.795Z,8.23
2022-09-26T17:20:29.352Z,16.13
2022-09-26T17:22:58.013Z,9.53
2022-09-26T17:25:26.707Z,7.90
2022-09-26T17:27:58.027Z,6.40
2022-09-26T17:30:26.584Z,6.20
2022-09-26T17:32:55.164Z,6.33
2022-09-26T17:35:27.308Z,6.03
2022-09-26T17:37:56.364Z,5.87
2022-09-26T17:40:26.970Z,6.97
2022-09-26T17:42:57.018Z,6.20
2022-09-26T17:45:30.675Z,5.73
2022-09-26T17:48:02.099Z,6.87
2022-09-26T17:50:33.660Z,8.23
2022-09-26T17:53:03.428Z,8.57
2022-09-26T17:55:32.397Z,7.97
2022-09-26T17:58:02.312Z,7.77
2022-09-26T18:00:34.560Z,6.97
2022-09-26T18:03:04.967Z,9.13
2022-09-26T18:05:38.519Z,8.60
2022-09-26T18:08:10.248Z,8.00
2022-09-26T18:10:41.800Z,7.97
2022-09-26T18:13:14.030Z,5.67
2022-09-26T18:15:42.695Z,5.40
2022-09-26T18:18:15.000Z,4.77
2022-09-26T18:20:45.624Z,5.40
2022-09-26T18:23:18.421Z,4.70
2022-09-26T18:25:50.221Z,5.90
2022-09-26T18:28:22.506Z,4.40
2022-09-26T18:30:58.166Z,4.97
2022-09-26T18:33:29.455Z,4.87
2022-09-26T18:36:00.473Z,4.93
2022-09-26T18:38:29.607Z,4.40
2022-09-26T18:41:02.015Z,4.83
2022-09-26T18:43:32.071Z,6.87
2022-09-26T18:46:01.477Z,6.07
2022-09-26T18:48:34.027Z,5.23
2022-09-26T18:51:05.051Z,5.63
2022-09-26T18:53:37.500Z,5.77
2022-09-26T18:56:24.784Z,5.57
2022-09-26T18:58:53.710Z,7.20
2022-09-26T19:01:28.225Z,7.37
2022-09-26T19:03:58.507Z,10.50
2022-09-26T19:06:32.024Z,10.10
2022-09-26T19:09:02.163Z,8.80
2022-09-26T19:11:32.681Z,6.93
2022-09-26T19:14:07.017Z,6.63
2022-09-26T19:16:35.775Z,5.37
2022-09-26T19:19:04.495Z,5.03
2022-09-26T19:21:36.494Z,4.63
2022-09-26T19:24:09.909Z,4.20
2022-09-26T19:26:42.018Z,4.07
2022-09-26T19:29:14.913Z,4.20
2022-09-26T19:31:44.822Z,4.50
2022-09-26T19:34:15.659Z,7.00
2022-09-26T19:36:48.233Z,6.30
2022-09-26T19:39:20.704Z,5.33
2022-09-26T19:41:50.739Z,5.87
2022-09-26T19:44:19.490Z,5.33
2022-09-26T19:46:48.501Z,7.87
2022-09-26T19:49:19.022Z,5.60
2022-09-26T19:51:49.847Z,5.40
2022-09-26T19:54:20.182Z,6.23
2022-09-26T19:56:49.222Z,6.30
2022-09-26T19:59:20.638Z,5.53
2022-09-26T20:01:51.175Z,6.10
2022-09-26T20:04:23.351Z,6.20
2022-09-26T20:06:53.719Z,8.23
2022-09-26T20:09:22.273Z,6.67
2022-09-26T20:11:50.812Z,7.30
2022-09-26T20:14:25.373Z,6.93
2022-09-26T20:16:58.692Z,7.70
2022-09-26T20:19:34.449Z,8.30
2022-09-26T20:22:07.358Z,7.83
2022-09-26T20:24:38.379Z,7.00
2022-09-26T20:27:08.783Z,7.77
2022-09-26T20:29:55.803Z,8.73
2022-09-26T20:32:24.383Z,8.10
2022-09-26T20:34:52.968Z,9.83
2022-09-26T20:37:23.650Z,7.83
2022-09-26T20:39:52.511Z,8.00
2022-09-26T20:42:22.114Z,8.10
2022-09-26T20:44:51.132Z,6.80
2022-09-26T20:47:21.370Z,8.30
2022-09-26T20:49:53.204Z,6.77
2022-09-26T20:52:25.528Z,8.27
2022-09-26T20:54:54.363Z,7.33
2022-09-26T20:57:23.172Z,6.40
2022-09-26T20:59:52.166Z,7.07
2022-09-26T21:02:27.787Z,8.17
2022-09-26T21:04:57.828Z,6.73
2022-09-26T21:07:27.926Z,6.40
2022-09-26T21:09:56.708Z,7.70
2022-09-26T21:12:26.691Z,7.10
2022-09-26T21:14:55.531Z,7.83
2022-09-26T21:17:27.826Z,7.43
2022-09-26T21:19:56.735Z,5.77
2022-09-26T21:22:28.560Z,5.40
2022-09-26T21:24:57.265Z,5.53
2022-09-26T21:27:26.215Z,5.03
2022-09-26T21:29:54.803Z,5.17
2022-09-26T21:32:24.511Z,5.20
2022-09-26T21:34:59.453Z,6.10
2022-09-26T21:37:29.511Z,8.27
2022-09-26T21:39:58.417Z,8.27
2022-09-26T21:42:27.423Z,6.03
2022-09-26T21:44:59.894Z,5.13
2022-09-26T21:47:28.666Z,6.97
2022-09-26T21:49:58.274Z,6.10
2022-09-26T21:52:32.013Z,5.90
2022-09-26T21:55:01.518Z,5.63
2022-09-26T21:57:32.828Z,6.97
2022-09-26T22:02:29.248Z,6.13
2022-09-26T22:04:58.125Z,5.23
2022-09-26T22:07:26.757Z,5.70
2022-09-26T22:09:56.735Z,5.73
2022-09-26T22:12:25.334Z,4.63
2022-09-26T22:14:53.938Z,5.73
2022-09-26T22:17:22.531Z,5.17
2022-09-26T22:19:51.418Z,6.17
2022-09-26T22:22:20.132Z,6.53
2022-09-26T22:24:48.710Z,6.90
2022-09-26T22:27:18.775Z,5.73
2022-09-26T22:29:48.465Z,6.37
2022-09-26T22:32:17.095Z,5.43
2022-09-26T22:34:45.747Z,5.63
2022-09-26T22:37:15.078Z,6.07
2022-09-26T22:39:43.927Z,5.70
2022-09-26T22:42:12.952Z,5.57
2022-09-26T22:44:42.972Z,5.23
2022-09-26T22:47:11.552Z,4.93
2022-09-26T22:49:40.166Z,5.80
2022-09-26T22:52:09.405Z,5.03
2022-09-26T22:54:38.029Z,5.37
2022-09-26T22:57:06.729Z,6.53
2022-09-26T22:59:35.286Z,4.20
2022-09-26T23:02:05.451Z,5.87
2022-09-26T23:04:47.858Z,5.50
2022-09-26T23:07:17.797Z,6.53
2022-09-26T23:09:46.596Z,5.90
2022-09-26T23:12:15.336Z,4.47
2022-09-26T23:14:45.535Z,4.57
2022-09-26T23:17:15.693Z,4.90
2022-09-26T23:19:45.420Z,4.00
2022-09-26T23:22:15.459Z,4.43
2022-09-26T23:24:44.076Z,5.23
2022-09-26T23:27:12.727Z,5.13
2022-09-26T23:29:41.903Z,4.07
2022-09-26T23:32:10.603Z,4.73
2022-09-26T23:34:40.664Z,3.90
2022-09-26T23:37:09.376Z,4.60
2022-09-26T23:39:38.068Z,4.17
2022-09-26T23:42:07.002Z,4.57
2022-09-26T23:44:36.320Z,4.93
2022-09-26T23:47:05.024Z,3.70
2022-09-26T23:49:33.583Z,3.87
2022-09-26T23:52:03.780Z,4.33
2022-09-26T23:54:32.342Z,4.20
2022-09-26T23:57:01.792Z,4.73
2022-09-26T23:59:30.336Z,5.37
